sensor_id;sensor_type;location;lat;lon;timestamp;P1;durP1;ratioP1;P2;durP2;ratioP2
67162;SDS011;54092;53.088;8.850;2023-06-22T00:01:46;9.38;;;6.28;;
67162;SDS011;54092;53.088;8.850;2023-06-22T00:04:12;9.52;;;5.93;;
67162;SDS011;54092;53.088;8.850;2023-06-22T00:06:38;9.85;;;6.07;;
67162;SDS011;54092;53.088;8.850;2023-06-22T00:09:03;10.27;;;6.53;;
67162;SDS011;54092;53.088;8.850;2023-06-22T00:11:28;11.50;;;6.53;;
67162;SDS011;54092;53.088;8.850;2023-06-22T00:13:56;11.15;;;7.82;;
67162;SDS011;54092;53.088;8.850;2023-06-22T00:16:21;10.85;;;7.18;;
67162;SDS011;54092;53.088;8.850;2023-06-22T00:18:47;10.50;;;6.50;;
67162;SDS011;54092;53.088;8.850;2023-06-22T00:21:13;11.43;;;6.80;;
67162;SDS011;54092;53.088;8.850;2023-06-22T00:23:39;8.52;;;6.38;;
67162;SDS011;54092;53.088;8.850;2023-06-22T00:26:06;10.50;;;6.68;;
67162;SDS011;54092;53.088;8.850;2023-06-22T00:28:32;10.48;;;6.60;;
67162;SDS011;54092;53.088;8.850;2023-06-22T00:30:57;13.35;;;7.05;;
67162;SDS011;54092;53.088;8.850;2023-06-22T00:33:23;10.95;;;6.82;;
67162;SDS011;54092;53.088;8.850;2023-06-22T00:35:48;11.90;;;6.70;;
67162;SDS011;54092;53.088;8.850;2023-06-22T00:38:17;9.88;;;6.22;;
67162;SDS011;54092;53.088;8.850;2023-06-22T00:40:43;11.25;;;7.07;;
67162;SDS011;54092;53.088;8.850;2023-06-22T00:43:09;10.65;;;6.75;;
67162;SDS011;54092;53.088;8.850;2023-06-22T00:45:34;9.52;;;6.85;;
67162;SDS011;54092;53.088;8.850;2023-06-22T00:48:00;10.55;;;6.60;;
67162;SDS011;54092;53.088;8.850;2023-06-22T00:50:27;11.30;;;6.50;;
67162;SDS011;54092;53.088;8.850;2023-06-22T00:52:58;11.90;;;7.78;;
67162;SDS011;54092;53.088;8.850;2023-06-22T00:55:33;10.13;;;6.80;;
67162;SDS011;54092;53.088;8.850;2023-06-22T00:58:02;11.90;;;7.05;;
67162;SDS011;54092;53.088;8.850;2023-06-22T01:00:30;11.05;;;7.07;;
67162;SDS011;54092;53.088;8.850;2023-06-22T01:02:57;12.57;;;7.63;;
67162;SDS011;54092;53.088;8.850;2023-06-22T01:05:23;12.57;;;7.60;;
67162;SDS011;54092;53.088;8.850;2023-06-22T01:07:58;11.05;;;7.70;;
67162;SDS011;54092;53.088;8.850;2023-06-22T01:10:45;11.32;;;7.45;;
67162;SDS011;54092;53.088;8.850;2023-06-22T01:16:23;11.93;;;7.97;;
67162;SDS011;54092;53.088;8.850;2023-06-22T01:18:52;11.40;;;7.75;;
67162;SDS011;54092;53.088;8.850;2023-06-22T01:21:20;12.95;;;8.63;;
67162;SDS011;54092;53.088;8.850;2023-06-22T01:26:40;12.55;;;8.73;;
67162;SDS011;54092;53.088;8.850;2023-06-22T01:29:11;15.85;;;9.15;;
67162;SDS011;54092;53.088;8.850;2023-06-22T01:31:39;14.88;;;9.38;;
67162;SDS011;54092;53.088;8.850;2023-06-22T01:34:07;14.18;;;9.10;;
67162;SDS011;54092;53.088;8.850;2023-06-22T01:36:34;14.82;;;9.73;;
67162;SDS011;54092;53.088;8.850;2023-06-22T01:39:02;14.15;;;9.95;;
67162;SDS011;54092;53.088;8.850;2023-06-22T01:41:29;14.48;;;9.65;;
67162;SDS011;54092;53.088;8.850;2023-06-22T01:43:57;15.73;;;9.60;;
67162;SDS011;54092;53.088;8.850;2023-06-22T01:46:24;14.45;;;9.45;;
67162;SDS011;54092;53.088;8.850;2023-06-22T01:48:50;15.10;;;9.75;;
67162;SDS011;54092;53.088;8.850;2023-06-22T01:51:16;17.35;;;9.57;;
67162;SDS011;54092;53.088;8.850;2023-06-22T01:53:41;13.13;;;9.02;;
67162;SDS011;54092;53.088;8.850;2023-06-22T01:56:07;14.77;;;10.23;;
67162;SDS011;54092;53.088;8.850;2023-06-22T01:58:34;14.65;;;10.38;;
67162;SDS011;54092;53.088;8.850;2023-06-22T02:01:09;15.95;;;10.02;;
67162;SDS011;54092;53.088;8.850;2023-06-22T02:03:43;15.90;;;10.38;;
67162;SDS011;54092;53.088;8.850;2023-06-22T02:06:15;16.20;;;11.32;;
67162;SDS011;54092;53.088;8.850;2023-06-22T02:08:47;16.42;;;11.52;;
67162;SDS011;54092;53.088;8.850;2023-06-22T02:11:16;15.30;;;10.75;;
67162;SDS011;54092;53.088;8.850;2023-06-22T02:13:44;18.45;;;11.60;;
67162;SDS011;54092;53.088;8.850;2023-06-22T02:16:11;16.40;;;11.40;;
67162;SDS011;54092;53.088;8.850;2023-06-22T02:18:37;17.25;;;11.23;;
67162;SDS011;54092;53.088;8.850;2023-06-22T02:21:03;19.17;;;12.00;;
67162;SDS011;54092;53.088;8.850;2023-06-22T02:23:28;17.83;;;11.68;;
67162;SDS011;54092;53.088;8.850;2023-06-22T02:25:54;19.02;;;11.27;;
67162;SDS011;54092;53.088;8.850;2023-06-22T02:28:19;17.35;;;11.60;;
67162;SDS011;54092;53.088;8.850;2023-06-22T02:30:45;15.95;;;11.20;;
67162;SDS011;54092;53.088;8.850;2023-06-22T02:33:10;17.15;;;10.70;;
67162;SDS011;54092;53.088;8.850;2023-06-22T02:35:36;18.98;;;11.63;;
67162;SDS011;54092;53.088;8.850;2023-06-22T02:38:02;19.38;;;12.07;;
67162;SDS011;54092;53.088;8.850;2023-06-22T02:40:29;18.05;;;11.88;;
67162;SDS011;54092;53.088;8.850;2023-06-22T02:42:55;17.63;;;11.93;;
67162;SDS011;54092;53.088;8.850;2023-06-22T02:45:23;17.65;;;11.20;;
67162;SDS011;54092;53.088;8.850;2023-06-22T02:47:48;17.33;;;11.55;;
67162;SDS011;54092;53.088;8.850;2023-06-22T02:50:14;18.17;;;12.20;;
67162;SDS011;54092;53.088;8.850;2023-06-22T02:52:39;16.88;;;11.07;;
67162;SDS011;54092;53.088;8.850;2023-06-22T02:55:05;20.40;;;12.30;;
67162;SDS011;54092;53.088;8.850;2023-06-22T02:57:32;19.00;;;12.20;;
67162;SDS011;54092;53.088;8.850;2023-06-22T02:59:57;17.75;;;12.65;;
67162;SDS011;54092;53.088;8.850;2023-06-22T03:02:23;18.00;;;12.23;;
67162;SDS011;54092;53.088;8.850;2023-06-22T03:04:49;17.15;;;11.23;;
67162;SDS011;54092;53.088;8.850;2023-06-22T03:07:15;18.90;;;12.35;;
67162;SDS011;54092;53.088;8.850;2023-06-22T03:09:42;20.27;;;13.35;;
67162;SDS011;54092;53.088;8.850;2023-06-22T03:12:08;21.00;;;13.38;;
67162;SDS011;54092;53.088;8.850;2023-06-22T03:14:33;22.00;;;12.68;;
67162;SDS011;54092;53.088;8.850;2023-06-22T03:16:59;17.60;;;11.82;;
67162;SDS011;54092;53.088;8.850;2023-06-22T03:19:28;18.73;;;13.20;;
67162;SDS011;54092;53.088;8.850;2023-06-22T03:21:54;20.80;;;12.77;;
67162;SDS011;54092;53.088;8.850;2023-06-22T03:24:20;20.08;;;13.02;;
67162;SDS011;54092;53.088;8.850;2023-06-22T03:26:45;19.73;;;12.35;;
67162;SDS011;54092;53.088;8.850;2023-06-22T03:29:11;18.38;;;13.07;;
67162;SDS011;54092;53.088;8.850;2023-06-22T03:31:37;21.50;;;12.93;;
67162;SDS011;54092;53.088;8.850;2023-06-22T03:34:02;18.83;;;13.40;;
67162;SDS011;54092;53.088;8.850;2023-06-22T03:36:28;19.85;;;13.18;;
67162;SDS011;54092;53.088;8.850;2023-06-22T03:38:54;19.83;;;12.88;;
67162;SDS011;54092;53.088;8.850;2023-06-22T03:41:20;20.55;;;14.18;;
67162;SDS011;54092;53.088;8.850;2023-06-22T03:43:45;20.55;;;13.68;;
67162;SDS011;54092;53.088;8.850;2023-06-22T03:46:11;23.15;;;14.98;;
67162;SDS011;54092;53.088;8.850;2023-06-22T03:48:37;20.30;;;14.32;;
67162;SDS011;54092;53.088;8.850;2023-06-22T03:51:03;23.75;;;14.57;;
67162;SDS011;54092;53.088;8.850;2023-06-22T03:53:29;21.67;;;14.55;;
67162;SDS011;54092;53.088;8.850;2023-06-22T03:55:55;23.05;;;13.63;;
67162;SDS011;54092;53.088;8.850;2023-06-22T03:58:21;22.20;;;14.35;;
67162;SDS011;54092;53.088;8.850;2023-06-22T04:00:47;21.17;;;13.70;;
67162;SDS011;54092;53.088;8.850;2023-06-22T04:03:13;23.55;;;14.63;;
67162;SDS011;54092;53.088;8.850;2023-06-22T04:05:40;25.85;;;15.80;;
67162;SDS011;54092;53.088;8.850;2023-06-22T04:08:06;26.48;;;15.90;;
67162;SDS011;54092;53.088;8.850;2023-06-22T04:10:32;25.00;;;16.08;;
67162;SDS011;54092;53.088;8.850;2023-06-22T04:12:57;23.75;;;15.10;;
67162;SDS011;54092;53.088;8.850;2023-06-22T04:15:23;25.77;;;15.68;;
67162;SDS011;54092;53.088;8.850;2023-06-22T04:17:48;24.73;;;14.75;;
67162;SDS011;54092;53.088;8.850;2023-06-22T04:20:14;24.13;;;15.50;;
67162;SDS011;54092;53.088;8.850;2023-06-22T04:22:39;23.95;;;14.98;;
67162;SDS011;54092;53.088;8.850;2023-06-22T04:25:05;22.98;;;15.82;;
67162;SDS011;54092;53.088;8.850;2023-06-22T04:27:32;21.50;;;14.93;;
67162;SDS011;54092;53.088;8.850;2023-06-22T04:30:02;24.90;;;16.27;;
67162;SDS011;54092;53.088;8.850;2023-06-22T04:32:28;24.42;;;15.93;;
67162;SDS011;54092;53.088;8.850;2023-06-22T04:34:53;25.35;;;16.98;;
67162;SDS011;54092;53.088;8.850;2023-06-22T04:37:19;28.52;;;17.02;;
67162;SDS011;54092;53.088;8.850;2023-06-22T04:39:48;26.92;;;17.02;;
67162;SDS011;54092;53.088;8.850;2023-06-22T04:42:14;27.60;;;17.15;;
67162;SDS011;54092;53.088;8.850;2023-06-22T04:44:39;24.13;;;16.33;;
67162;SDS011;54092;53.088;8.850;2023-06-22T04:47:06;24.92;;;16.48;;
67162;SDS011;54092;53.088;8.850;2023-06-22T04:49:33;25.70;;;16.70;;
67162;SDS011;54092;53.088;8.850;2023-06-22T04:52:02;26.58;;;17.77;;
67162;SDS011;54092;53.088;8.850;2023-06-22T04:54:31;24.67;;;16.45;;
67162;SDS011;54092;53.088;8.850;2023-06-22T04:57:00;27.15;;;16.60;;
67162;SDS011;54092;53.088;8.850;2023-06-22T04:59:27;27.75;;;16.60;;
67162;SDS011;54092;53.088;8.850;2023-06-22T05:01:55;25.75;;;17.27;;
67162;SDS011;54092;53.088;8.850;2023-06-22T05:04:24;31.33;;;20.00;;
67162;SDS011;54092;53.088;8.850;2023-06-22T05:06:52;25.00;;;16.83;;
67162;SDS011;54092;53.088;8.850;2023-06-22T05:09:18;26.48;;;17.15;;
67162;SDS011;54092;53.088;8.850;2023-06-22T05:11:44;23.08;;;15.40;;
67162;SDS011;54092;53.088;8.850;2023-06-22T05:14:10;25.77;;;16.08;;
67162;SDS011;54092;53.088;8.850;2023-06-22T05:16:36;24.98;;;16.35;;
67162;SDS011;54092;53.088;8.850;2023-06-22T05:19:02;27.58;;;16.95;;
67162;SDS011;54092;53.088;8.850;2023-06-22T05:21:28;24.20;;;16.67;;
67162;SDS011;54092;53.088;8.850;2023-06-22T05:23:55;27.38;;;17.17;;
67162;SDS011;54092;53.088;8.850;2023-06-22T05:26:25;26.42;;;16.13;;
67162;SDS011;54092;53.088;8.850;2023-06-22T05:28:51;25.77;;;16.80;;
67162;SDS011;54092;53.088;8.850;2023-06-22T05:31:17;24.33;;;16.23;;
67162;SDS011;54092;53.088;8.850;2023-06-22T05:33:44;25.75;;;16.73;;
67162;SDS011;54092;53.088;8.850;2023-06-22T05:36:11;22.55;;;14.38;;
67162;SDS011;54092;53.088;8.850;2023-06-22T05:38:37;24.92;;;14.48;;
67162;SDS011;54092;53.088;8.850;2023-06-22T05:41:03;24.38;;;13.93;;
67162;SDS011;54092;53.088;8.850;2023-06-22T05:43:29;21.88;;;13.75;;
67162;SDS011;54092;53.088;8.850;2023-06-22T05:45:55;18.80;;;12.38;;
67162;SDS011;54092;53.088;8.850;2023-06-22T05:48:20;21.67;;;13.68;;
67162;SDS011;54092;53.088;8.850;2023-06-22T05:50:46;18.60;;;12.65;;
67162;SDS011;54092;53.088;8.850;2023-06-22T05:53:11;19.42;;;12.55;;
67162;SDS011;54092;53.088;8.850;2023-06-22T05:55:37;17.85;;;11.38;;
67162;SDS011;54092;53.088;8.850;2023-06-22T05:58:02;17.67;;;11.07;;
67162;SDS011;54092;53.088;8.850;2023-06-22T06:00:28;18.52;;;10.38;;
67162;SDS011;54092;53.088;8.850;2023-06-22T06:02:54;18.15;;;11.02;;
67162;SDS011;54092;53.088;8.850;2023-06-22T06:05:19;15.98;;;9.88;;
67162;SDS011;54092;53.088;8.850;2023-06-22T06:07:45;16.25;;;10.07;;
67162;SDS011;54092;53.088;8.850;2023-06-22T06:10:11;16.75;;;9.77;;
67162;SDS011;54092;53.088;8.850;2023-06-22T06:12:37;15.00;;;9.00;;
67162;SDS011;54092;53.088;8.850;2023-06-22T06:15:03;15.10;;;8.60;;
67162;SDS011;54092;53.088;8.850;2023-06-22T06:17:29;15.57;;;9.55;;
67162;SDS011;54092;53.088;8.850;2023-06-22T06:19:55;13.57;;;8.23;;
67162;SDS011;54092;53.088;8.850;2023-06-22T06:22:21;13.32;;;9.13;;
67162;SDS011;54092;53.088;8.850;2023-06-22T06:24:48;13.57;;;8.80;;
67162;SDS011;54092;53.088;8.850;2023-06-22T06:27:14;12.40;;;8.50;;
67162;SDS011;54092;53.088;8.850;2023-06-22T06:29:40;18.08;;;8.98;;
67162;SDS011;54092;53.088;8.850;2023-06-22T06:32:05;13.55;;;8.40;;
67162;SDS011;54092;53.088;8.850;2023-06-22T06:34:31;13.98;;;8.57;;
67162;SDS011;54092;53.088;8.850;2023-06-22T06:36:57;14.30;;;8.43;;
67162;SDS011;54092;53.088;8.850;2023-06-22T06:39:22;13.63;;;8.60;;
67162;SDS011;54092;53.088;8.850;2023-06-22T06:41:48;16.35;;;10.40;;
67162;SDS011;54092;53.088;8.850;2023-06-22T06:44:13;17.88;;;10.80;;
67162;SDS011;54092;53.088;8.850;2023-06-22T06:46:39;16.83;;;9.93;;
67162;SDS011;54092;53.088;8.850;2023-06-22T06:49:04;19.52;;;10.32;;
67162;SDS011;54092;53.088;8.850;2023-06-22T06:51:30;14.05;;;9.27;;
67162;SDS011;54092;53.088;8.850;2023-06-22T06:53:56;17.98;;;10.45;;
67162;SDS011;54092;53.088;8.850;2023-06-22T06:56:21;15.60;;;9.10;;
67162;SDS011;54092;53.088;8.850;2023-06-22T06:58:47;14.88;;;8.48;;
67162;SDS011;54092;53.088;8.850;2023-06-22T07:01:14;13.23;;;8.35;;
67162;SDS011;54092;53.088;8.850;2023-06-22T07:03:39;12.52;;;7.88;;
67162;SDS011;54092;53.088;8.850;2023-06-22T07:06:05;14.32;;;8.45;;
67162;SDS011;54092;53.088;8.850;2023-06-22T07:08:30;12.70;;;7.93;;
67162;SDS011;54092;53.088;8.850;2023-06-22T07:10:56;12.60;;;8.05;;
67162;SDS011;54092;53.088;8.850;2023-06-22T07:13:22;11.68;;;7.63;;
67162;SDS011;54092;53.088;8.850;2023-06-22T07:15:47;12.25;;;7.63;;
67162;SDS011;54092;53.088;8.850;2023-06-22T07:18:13;11.57;;;6.60;;
67162;SDS011;54092;53.088;8.850;2023-06-22T07:20:38;12.05;;;7.18;;
67162;SDS011;54092;53.088;8.850;2023-06-22T07:23:06;11.17;;;7.57;;
67162;SDS011;54092;53.088;8.850;2023-06-22T07:25:32;11.95;;;7.72;;
67162;SDS011;54092;53.088;8.850;2023-06-22T07:28:01;11.95;;;7.07;;
67162;SDS011;54092;53.088;8.850;2023-06-22T07:30:28;10.30;;;6.15;;
67162;SDS011;54092;53.088;8.850;2023-06-22T07:32:54;9.93;;;6.40;;
67162;SDS011;54092;53.088;8.850;2023-06-22T07:35:20;11.65;;;6.68;;
67162;SDS011;54092;53.088;8.850;2023-06-22T07:37:46;13.40;;;6.78;;
67162;SDS011;54092;53.088;8.850;2023-06-22T07:40:11;8.38;;;5.30;;
67162;SDS011;54092;53.088;8.850;2023-06-22T07:42:37;9.55;;;5.97;;
67162;SDS011;54092;53.088;8.850;2023-06-22T07:45:03;11.77;;;5.80;;
67162;SDS011;54092;53.088;8.850;2023-06-22T07:47:29;9.90;;;6.32;;
67162;SDS011;54092;53.088;8.850;2023-06-22T07:49:58;12.73;;;6.70;;
67162;SDS011;54092;53.088;8.850;2023-06-22T07:52:26;10.55;;;6.20;;
67162;SDS011;54092;53.088;8.850;2023-06-22T07:54:52;10.15;;;6.85;;
67162;SDS011;54092;53.088;8.850;2023-06-22T07:57:18;10.70;;;6.30;;
67162;SDS011;54092;53.088;8.850;2023-06-22T07:59:43;10.60;;;5.43;;
67162;SDS011;54092;53.088;8.850;2023-06-22T08:02:09;8.43;;;5.63;;
67162;SDS011;54092;53.088;8.850;2023-06-22T08:04:35;10.25;;;6.43;;
67162;SDS011;54092;53.088;8.850;2023-06-22T08:07:01;13.38;;;6.65;;
67162;SDS011;54092;53.088;8.850;2023-06-22T08:09:30;11.70;;;6.30;;
67162;SDS011;54092;53.088;8.850;2023-06-22T08:11:57;9.25;;;5.97;;
67162;SDS011;54092;53.088;8.850;2023-06-22T08:14:25;10.68;;;6.53;;
67162;SDS011;54092;53.088;8.850;2023-06-22T08:16:51;9.80;;;6.35;;
67162;SDS011;54092;53.088;8.850;2023-06-22T08:19:16;8.60;;;5.75;;
67162;SDS011;54092;53.088;8.850;2023-06-22T08:21:42;10.45;;;6.00;;
67162;SDS011;54092;53.088;8.850;2023-06-22T08:24:08;12.80;;;6.30;;
67162;SDS011;54092;53.088;8.850;2023-06-22T08:26:34;10.50;;;5.65;;
67162;SDS011;54092;53.088;8.850;2023-06-22T08:29:04;11.93;;;6.88;;
67162;SDS011;54092;53.088;8.850;2023-06-22T08:31:30;10.35;;;6.40;;
67162;SDS011;54092;53.088;8.850;2023-06-22T08:33:58;8.88;;;5.55;;
67162;SDS011;54092;53.088;8.850;2023-06-22T08:36:24;10.38;;;6.03;;
67162;SDS011;54092;53.088;8.850;2023-06-22T08:38:49;9.30;;;4.43;;
67162;SDS011;54092;53.088;8.850;2023-06-22T08:41:16;7.95;;;5.20;;
67162;SDS011;54092;53.088;8.850;2023-06-22T08:43:43;13.27;;;5.78;;
67162;SDS011;54092;53.088;8.850;2023-06-22T08:46:11;8.52;;;5.40;;
67162;SDS011;54092;53.088;8.850;2023-06-22T08:48:37;10.55;;;5.47;;
67162;SDS011;54092;53.088;8.850;2023-06-22T08:51:02;8.93;;;4.85;;
67162;SDS011;54092;53.088;8.850;2023-06-22T08:53:29;10.43;;;4.78;;
67162;SDS011;54092;53.088;8.850;2023-06-22T08:55:54;6.68;;;4.10;;
67162;SDS011;54092;53.088;8.850;2023-06-22T08:58:20;6.70;;;4.20;;
67162;SDS011;54092;53.088;8.850;2023-06-22T09:00:46;7.78;;;4.40;;
67162;SDS011;54092;53.088;8.850;2023-06-22T09:03:12;8.60;;;4.57;;
67162;SDS011;54092;53.088;8.850;2023-06-22T09:05:38;8.20;;;4.32;;
67162;SDS011;54092;53.088;8.850;2023-06-22T09:08:04;7.75;;;4.35;;
67162;SDS011;54092;53.088;8.850;2023-06-22T09:10:29;6.85;;;4.25;;
67162;SDS011;54092;53.088;8.850;2023-06-22T09:12:54;7.35;;;4.47;;
67162;SDS011;54092;53.088;8.850;2023-06-22T09:15:20;7.57;;;4.75;;
67162;SDS011;54092;53.088;8.850;2023-06-22T09:17:45;8.50;;;4.80;;
67162;SDS011;54092;53.088;8.850;2023-06-22T09:20:11;6.05;;;3.70;;
67162;SDS011;54092;53.088;8.850;2023-06-22T09:22:37;8.40;;;4.20;;
67162;SDS011;54092;53.088;8.850;2023-06-22T09:25:02;7.75;;;5.45;;
67162;SDS011;54092;53.088;8.850;2023-06-22T09:27:29;9.63;;;5.95;;
67162;SDS011;54092;53.088;8.850;2023-06-22T09:29:55;8.63;;;5.75;;
67162;SDS011;54092;53.088;8.850;2023-06-22T09:32:20;7.22;;;4.43;;
67162;SDS011;54092;53.088;8.850;2023-06-22T09:34:46;13.20;;;5.03;;
67162;SDS011;54092;53.088;8.850;2023-06-22T09:37:12;7.45;;;4.80;;
67162;SDS011;54092;53.088;8.850;2023-06-22T09:39:37;7.60;;;4.68;;
67162;SDS011;54092;53.088;8.850;2023-06-22T09:42:03;8.73;;;5.55;;
67162;SDS011;54092;53.088;8.850;2023-06-22T09:44:30;8.40;;;5.00;;
67162;SDS011;54092;53.088;8.850;2023-06-22T09:46:56;7.30;;;4.78;;
67162;SDS011;54092;53.088;8.850;2023-06-22T09:49:21;8.05;;;5.30;;
67162;SDS011;54092;53.088;8.850;2023-06-22T09:51:47;8.68;;;6.10;;
67162;SDS011;54092;53.088;8.850;2023-06-22T09:54:14;8.27;;;5.63;;
67162;SDS011;54092;53.088;8.850;2023-06-22T09:56:40;8.40;;;6.00;;
67162;SDS011;54092;53.088;8.850;2023-06-22T09:59:05;10.13;;;5.30;;
67162;SDS011;54092;53.088;8.850;2023-06-22T10:01:31;8.40;;;5.55;;
67162;SDS011;54092;53.088;8.850;2023-06-22T10:03:56;8.00;;;5.00;;
67162;SDS011;54092;53.088;8.850;2023-06-22T10:06:22;9.45;;;6.22;;
67162;SDS011;54092;53.088;8.850;2023-06-22T10:08:50;9.77;;;5.40;;
67162;SDS011;54092;53.088;8.850;2023-06-22T10:11:16;7.40;;;4.95;;
67162;SDS011;54092;53.088;8.850;2023-06-22T10:13:41;8.73;;;5.43;;
67162;SDS011;54092;53.088;8.850;2023-06-22T10:16:07;9.32;;;5.63;;
67162;SDS011;54092;53.088;8.850;2023-06-22T10:18:32;8.77;;;5.93;;
67162;SDS011;54092;53.088;8.850;2023-06-22T10:20:58;8.05;;;4.90;;
67162;SDS011;54092;53.088;8.850;2023-06-22T10:23:25;8.73;;;5.10;;
67162;SDS011;54092;53.088;8.850;2023-06-22T10:25:50;7.22;;;5.10;;
67162;SDS011;54092;53.088;8.850;2023-06-22T10:28:16;7.85;;;5.18;;
67162;SDS011;54092;53.088;8.850;2023-06-22T10:30:41;6.05;;;4.43;;
67162;SDS011;54092;53.088;8.850;2023-06-22T10:33:08;8.65;;;5.25;;
67162;SDS011;54092;53.088;8.850;2023-06-22T10:35:34;8.50;;;5.35;;
67162;SDS011;54092;53.088;8.850;2023-06-22T10:38:00;10.38;;;5.35;;
67162;SDS011;54092;53.088;8.850;2023-06-22T10:40:25;9.82;;;5.22;;
67162;SDS011;54092;53.088;8.850;2023-06-22T10:42:51;8.55;;;5.38;;
67162;SDS011;54092;53.088;8.850;2023-06-22T10:45:16;7.05;;;4.75;;
67162;SDS011;54092;53.088;8.850;2023-06-22T10:47:42;7.65;;;4.95;;
67162;SDS011;54092;53.088;8.850;2023-06-22T10:50:07;8.82;;;5.55;;
67162;SDS011;54092;53.088;8.850;2023-06-22T10:52:33;10.18;;;5.60;;
67162;SDS011;54092;53.088;8.850;2023-06-22T10:54:59;8.77;;;6.13;;
67162;SDS011;54092;53.088;8.850;2023-06-22T10:57:24;8.55;;;5.60;;
67162;SDS011;54092;53.088;8.850;2023-06-22T10:59:50;7.72;;;5.00;;
67162;SDS011;54092;53.088;8.850;2023-06-22T11:02:15;7.28;;;5.20;;
67162;SDS011;54092;53.088;8.850;2023-06-22T11:04:41;7.88;;;5.40;;
67162;SDS011;54092;53.088;8.850;2023-06-22T11:07:06;8.05;;;5.65;;
67162;SDS011;54092;53.088;8.850;2023-06-22T11:09:32;7.50;;;4.93;;
67162;SDS011;54092;53.088;8.850;2023-06-22T11:11:57;7.85;;;5.47;;
67162;SDS011;54092;53.088;8.850;2023-06-22T11:14:24;9.13;;;5.63;;
67162;SDS011;54092;53.088;8.850;2023-06-22T11:16:50;7.30;;;5.20;;
67162;SDS011;54092;53.088;8.850;2023-06-22T11:19:15;7.25;;;5.35;;
67162;SDS011;54092;53.088;8.850;2023-06-22T11:21:41;7.90;;;5.90;;
67162;SDS011;54092;53.088;8.850;2023-06-22T11:24:06;9.85;;;5.85;;
67162;SDS011;54092;53.088;8.850;2023-06-22T11:26:32;8.70;;;5.40;;
67162;SDS011;54092;53.088;8.850;2023-06-22T11:28:58;7.40;;;5.32;;
67162;SDS011;54092;53.088;8.850;2023-06-22T11:31:24;9.13;;;5.57;;
67162;SDS011;54092;53.088;8.850;2023-06-22T11:33:49;8.25;;;5.13;;
67162;SDS011;54092;53.088;8.850;2023-06-22T11:36:15;7.55;;;5.03;;
67162;SDS011;54092;53.088;8.850;2023-06-22T11:38:41;7.78;;;5.32;;
67162;SDS011;54092;53.088;8.850;2023-06-22T11:41:07;9.73;;;5.22;;
67162;SDS011;54092;53.088;8.850;2023-06-22T11:43:33;7.22;;;5.45;;
67162;SDS011;54092;53.088;8.850;2023-06-22T11:45:59;7.88;;;5.57;;
67162;SDS011;54092;53.088;8.850;2023-06-22T11:48:28;7.20;;;4.90;;
67162;SDS011;54092;53.088;8.850;2023-06-22T11:50:53;6.88;;;5.05;;
67162;SDS011;54092;53.088;8.850;2023-06-22T11:53:20;8.05;;;5.55;;
67162;SDS011;54092;53.088;8.850;2023-06-22T11:55:46;9.93;;;5.57;;
67162;SDS011;54092;53.088;8.850;2023-06-22T11:58:12;6.28;;;4.80;;
67162;SDS011;54092;53.088;8.850;2023-06-22T12:00:37;8.15;;;5.22;;
67162;SDS011;54092;53.088;8.850;2023-06-22T12:03:03;7.30;;;4.75;;
67162;SDS011;54092;53.088;8.850;2023-06-22T12:05:29;8.98;;;5.05;;
67162;SDS011;54092;53.088;8.850;2023-06-22T12:07:54;7.25;;;5.20;;
67162;SDS011;54092;53.088;8.850;2023-06-22T12:10:21;6.72;;;4.97;;
67162;SDS011;54092;53.088;8.850;2023-06-22T12:12:47;6.47;;;5.10;;
67162;SDS011;54092;53.088;8.850;2023-06-22T12:15:13;6.72;;;4.65;;
67162;SDS011;54092;53.088;8.850;2023-06-22T12:17:39;7.63;;;4.95;;
67162;SDS011;54092;53.088;8.850;2023-06-22T12:20:06;7.15;;;5.22;;
67162;SDS011;54092;53.088;8.850;2023-06-22T12:22:33;7.50;;;4.80;;
67162;SDS011;54092;53.088;8.850;2023-06-22T12:24:59;7.57;;;5.05;;
67162;SDS011;54092;53.088;8.850;2023-06-22T12:27:25;7.65;;;5.25;;
67162;SDS011;54092;53.088;8.850;2023-06-22T12:29:51;8.68;;;5.45;;
67162;SDS011;54092;53.088;8.850;2023-06-22T12:32:17;6.65;;;5.25;;
67162;SDS011;54092;53.088;8.850;2023-06-22T12:34:42;9.00;;;5.00;;
67162;SDS011;54092;53.088;8.850;2023-06-22T12:37:09;8.60;;;5.47;;
67162;SDS011;54092;53.088;8.850;2023-06-22T12:39:35;7.45;;;5.32;;
67162;SDS011;54092;53.088;8.850;2023-06-22T12:42:00;8.88;;;4.88;;
67162;SDS011;54092;53.088;8.850;2023-06-22T12:44:26;7.70;;;5.35;;
67162;SDS011;54092;53.088;8.850;2023-06-22T12:46:52;7.07;;;5.40;;
67162;SDS011;54092;53.088;8.850;2023-06-22T12:49:17;7.70;;;5.20;;
67162;SDS011;54092;53.088;8.850;2023-06-22T12:51:43;7.03;;;5.28;;
67162;SDS011;54092;53.088;8.850;2023-06-22T12:54:09;7.63;;;5.20;;
67162;SDS011;54092;53.088;8.850;2023-06-22T12:56:36;7.35;;;5.53;;
67162;SDS011;54092;53.088;8.850;2023-06-22T12:59:03;7.63;;;5.50;;
67162;SDS011;54092;53.088;8.850;2023-06-22T13:01:29;9.15;;;5.05;;
67162;SDS011;54092;53.088;8.850;2023-06-22T13:03:55;7.82;;;5.50;;
67162;SDS011;54092;53.088;8.850;2023-06-22T13:06:21;7.50;;;5.35;;
67162;SDS011;54092;53.088;8.850;2023-06-22T13:08:47;7.85;;;5.10;;
67162;SDS011;54092;53.088;8.850;2023-06-22T13:11:12;7.60;;;5.07;;
67162;SDS011;54092;53.088;8.850;2023-06-22T13:13:38;9.38;;;5.55;;
67162;SDS011;54092;53.088;8.850;2023-06-22T13:16:04;7.63;;;6.10;;
67162;SDS011;54092;53.088;8.850;2023-06-22T13:18:29;9.13;;;5.60;;
67162;SDS011;54092;53.088;8.850;2023-06-22T13:20:55;9.75;;;6.10;;
67162;SDS011;54092;53.088;8.850;2023-06-22T13:23:21;7.45;;;5.45;;
67162;SDS011;54092;53.088;8.850;2023-06-22T13:25:46;7.90;;;5.43;;
67162;SDS011;54092;53.088;8.850;2023-06-22T13:28:12;9.20;;;5.97;;
67162;SDS011;54092;53.088;8.850;2023-06-22T13:30:38;9.85;;;6.32;;
67162;SDS011;54092;53.088;8.850;2023-06-22T13:33:05;10.70;;;5.53;;
67162;SDS011;54092;53.088;8.850;2023-06-22T13:35:31;8.13;;;5.85;;
67162;SDS011;54092;53.088;8.850;2023-06-22T13:37:56;7.70;;;6.00;;
67162;SDS011;54092;53.088;8.850;2023-06-22T13:40:22;8.13;;;5.70;;
67162;SDS011;54092;53.088;8.850;2023-06-22T13:42:47;8.57;;;6.40;;
67162;SDS011;54092;53.088;8.850;2023-06-22T13:45:13;7.95;;;6.03;;
67162;SDS011;54092;53.088;8.850;2023-06-22T13:47:38;7.45;;;5.57;;
67162;SDS011;54092;53.088;8.850;2023-06-22T13:50:04;7.55;;;5.68;;
67162;SDS011;54092;53.088;8.850;2023-06-22T13:52:30;8.30;;;5.72;;
67162;SDS011;54092;53.088;8.850;2023-06-22T13:54:56;8.15;;;5.70;;
67162;SDS011;54092;53.088;8.850;2023-06-22T13:57:21;9.38;;;6.22;;
67162;SDS011;54092;53.088;8.850;2023-06-22T13:59:47;6.65;;;5.05;;
67162;SDS011;54092;53.088;8.850;2023-06-22T14:02:12;8.32;;;5.57;;
67162;SDS011;54092;53.088;8.850;2023-06-22T14:04:38;9.68;;;6.07;;
67162;SDS011;54092;53.088;8.850;2023-06-22T14:07:04;8.45;;;5.90;;
67162;SDS011;54092;53.088;8.850;2023-06-22T14:09:29;9.88;;;6.57;;
67162;SDS011;54092;53.088;8.850;2023-06-22T14:11:55;9.68;;;6.47;;
67162;SDS011;54092;53.088;8.850;2023-06-22T14:14:21;10.80;;;6.30;;
67162;SDS011;54092;53.088;8.850;2023-06-22T14:16:46;9.23;;;5.78;;
67162;SDS011;54092;53.088;8.850;2023-06-22T14:19:14;8.52;;;6.03;;
67162;SDS011;54092;53.088;8.850;2023-06-22T14:21:41;7.93;;;6.22;;
67162;SDS011;54092;53.088;8.850;2023-06-22T14:24:07;8.48;;;6.57;;
67162;SDS011;54092;53.088;8.850;2023-06-22T14:26:33;9.02;;;6.60;;
67162;SDS011;54092;53.088;8.850;2023-06-22T14:28:58;10.02;;;6.93;;
67162;SDS011;54092;53.088;8.850;2023-06-22T14:31:24;9.50;;;6.65;;
67162;SDS011;54092;53.088;8.850;2023-06-22T14:33:49;9.50;;;7.15;;
67162;SDS011;54092;53.088;8.850;2023-06-22T14:36:15;18.35;;;6.90;;